sensor_id;sensor_type;location;lat;lon;timestamp;P1;durP1;ratioP1;P2;durP2;ratioP2
19554;SDS011;9924;50.828;6.440;2023-04-19T00:01:57;8.85;;;6.28;;
19554;SDS011;9924;50.828;6.440;2023-04-19T00:04:41;10.02;;;6.55;;
19554;SDS011;9924;50.828;6.440;2023-04-19T00:07:27;9.65;;;6.32;;
19554;SDS011;9924;50.828;6.440;2023-04-19T00:10:11;9.52;;;6.07;;
19554;SDS011;9924;50.828;6.440;2023-04-19T00:12:56;8.93;;;6.10;;
19554;SDS011;9924;50.828;6.440;2023-04-19T00:15:40;9.00;;;5.88;;
19554;SDS011;9924;50.828;6.440;2023-04-19T00:18:24;9.00;;;5.57;;
19554;SDS011;9924;50.828;6.440;2023-04-19T00:21:09;7.55;;;5.55;;
19554;SDS011;9924;50.828;6.440;2023-04-19T00:23:54;10.02;;;6.05;;
19554;SDS011;9924;50.828;6.440;2023-04-19T00:26:38;9.23;;;4.90;;
19554;SDS011;9924;50.828;6.440;2023-04-19T00:29:23;8.98;;;5.20;;
19554;SDS011;9924;50.828;6.440;2023-04-19T00:32:07;7.78;;;5.40;;
19554;SDS011;9924;50.828;6.440;2023-04-19T00:34:52;5.88;;;4.63;;
19554;SDS011;9924;50.828;6.440;2023-04-19T00:37:36;8.90;;;5.47;;
19554;SDS011;9924;50.828;6.440;2023-04-19T00:40:20;7.50;;;4.65;;
19554;SDS011;9924;50.828;6.440;2023-04-19T00:43:05;7.35;;;4.68;;
19554;SDS011;9924;50.828;6.440;2023-04-19T00:45:49;7.07;;;4.57;;
19554;SDS011;9924;50.828;6.440;2023-04-19T00:48:34;7.15;;;4.57;;
19554;SDS011;9924;50.828;6.440;2023-04-19T00:51:21;7.43;;;4.82;;
19554;SDS011;9924;50.828;6.440;2023-04-19T00:54:06;5.85;;;4.50;;
19554;SDS011;9924;50.828;6.440;2023-04-19T00:56:51;8.13;;;4.63;;
19554;SDS011;9924;50.828;6.440;2023-04-19T00:59:36;5.00;;;4.05;;
19554;SDS011;9924;50.828;6.440;2023-04-19T01:04:56;7.32;;;4.22;;
19554;SDS011;9924;50.828;6.440;2023-04-19T01:07:58;8.85;;;4.50;;
19554;SDS011;9924;50.828;6.440;2023-04-19T01:10:50;6.97;;;4.50;;
19554;SDS011;9924;50.828;6.440;2023-04-19T01:13:41;7.70;;;4.45;;
19554;SDS011;9924;50.828;6.440;2023-04-19T01:16:33;6.60;;;4.30;;
19554;SDS011;9924;50.828;6.440;2023-04-19T01:19:23;6.97;;;4.90;;
19554;SDS011;9924;50.828;6.440;2023-04-19T01:22:18;6.72;;;4.57;;
19554;SDS011;9924;50.828;6.440;2023-04-19T01:25:19;8.27;;;5.63;;
19554;SDS011;9924;50.828;6.440;2023-04-19T01:28:36;9.02;;;5.85;;
19554;SDS011;9924;50.828;6.440;2023-04-19T01:31:28;7.43;;;5.30;;
19554;SDS011;9924;50.828;6.440;2023-04-19T01:34:22;7.95;;;5.90;;
19554;SDS011;9924;50.828;6.440;2023-04-19T01:40:30;10.68;;;6.32;;
19554;SDS011;9924;50.828;6.440;2023-04-19T01:43:21;7.30;;;5.38;;
19554;SDS011;9924;50.828;6.440;2023-04-19T01:49:39;10.25;;;6.70;;
19554;SDS011;9924;50.828;6.440;2023-04-19T01:52:27;11.18;;;6.50;;
19554;SDS011;9924;50.828;6.440;2023-04-19T01:55:17;8.15;;;6.10;;
19554;SDS011;9924;50.828;6.440;2023-04-19T01:58:47;10.40;;;6.78;;
19554;SDS011;9924;50.828;6.440;2023-04-19T02:01:27;13.07;;;8.85;;
19554;SDS011;9924;50.828;6.440;2023-04-19T02:04:23;15.07;;;9.38;;
19554;SDS011;9924;50.828;6.440;2023-04-19T02:10:59;20.38;;;12.00;;
19554;SDS011;9924;50.828;6.440;2023-04-19T02:13:48;17.75;;;11.90;;
19554;SDS011;9924;50.828;6.440;2023-04-19T02:16:33;20.40;;;12.40;;
19554;SDS011;9924;50.828;6.440;2023-04-19T02:19:28;18.73;;;12.27;;
19554;SDS011;9924;50.828;6.440;2023-04-19T02:22:21;16.30;;;12.05;;
19554;SDS011;9924;50.828;6.440;2023-04-19T02:25:31;20.45;;;12.27;;
19554;SDS011;9924;50.828;6.440;2023-04-19T02:28:20;17.45;;;12.02;;
19554;SDS011;9924;50.828;6.440;2023-04-19T02:31:07;17.55;;;12.38;;
19554;SDS011;9924;50.828;6.440;2023-04-19T02:34:08;20.20;;;12.15;;
19554;SDS011;9924;50.828;6.440;2023-04-19T02:37:02;20.73;;;13.35;;
19554;SDS011;9924;50.828;6.440;2023-04-19T02:39:47;18.27;;;12.50;;
19554;SDS011;9924;50.828;6.440;2023-04-19T02:42:34;20.35;;;13.52;;
19554;SDS011;9924;50.828;6.440;2023-04-19T02:45:22;21.98;;;13.38;;
19554;SDS011;9924;50.828;6.440;2023-04-19T02:48:08;22.77;;;14.13;;
19554;SDS011;9924;50.828;6.440;2023-04-19T02:50:59;20.58;;;12.95;;
19554;SDS011;9924;50.828;6.440;2023-04-19T02:53:46;19.00;;;12.25;;
19554;SDS011;9924;50.828;6.440;2023-04-19T02:56:32;24.45;;;13.10;;
19554;SDS011;9924;50.828;6.440;2023-04-19T02:59:27;20.85;;;13.43;;
19554;SDS011;9924;50.828;6.440;2023-04-19T03:02:13;21.63;;;13.82;;
19554;SDS011;9924;50.828;6.440;2023-04-19T03:04:59;20.65;;;13.10;;
19554;SDS011;9924;50.828;6.440;2023-04-19T03:07:45;21.55;;;13.23;;
19554;SDS011;9924;50.828;6.440;2023-04-19T03:10:32;23.70;;;14.93;;
19554;SDS011;9924;50.828;6.440;2023-04-19T03:13:18;23.95;;;14.25;;
19554;SDS011;9924;50.828;6.440;2023-04-19T03:16:04;23.55;;;15.18;;
19554;SDS011;9924;50.828;6.440;2023-04-19T03:18:53;24.42;;;14.68;;
19554;SDS011;9924;50.828;6.440;2023-04-19T03:21:39;25.17;;;16.40;;
19554;SDS011;9924;50.828;6.440;2023-04-19T03:24:28;25.50;;;15.18;;
19554;SDS011;9924;50.828;6.440;2023-04-19T03:27:14;21.58;;;14.13;;
19554;SDS011;9924;50.828;6.440;2023-04-19T03:29:59;22.63;;;15.32;;
19554;SDS011;9924;50.828;6.440;2023-04-19T03:32:47;25.55;;;16.15;;
19554;SDS011;9924;50.828;6.440;2023-04-19T03:35:37;26.85;;;14.98;;
19554;SDS011;9924;50.828;6.440;2023-04-19T03:38:25;24.77;;;15.60;;
19554;SDS011;9924;50.828;6.440;2023-04-19T03:41:21;26.55;;;15.70;;
19554;SDS011;9924;50.828;6.440;2023-04-19T03:44:16;23.65;;;14.98;;
19554;SDS011;9924;50.828;6.440;2023-04-19T03:47:03;27.15;;;15.23;;
19554;SDS011;9924;50.828;6.440;2023-04-19T03:49:49;29.95;;;15.38;;
19554;SDS011;9924;50.828;6.440;2023-04-19T03:52:39;22.58;;;14.75;;
19554;SDS011;9924;50.828;6.440;2023-04-19T03:55:25;25.25;;;15.60;;
19554;SDS011;9924;50.828;6.440;2023-04-19T03:58:31;25.55;;;15.15;;
19554;SDS011;9924;50.828;6.440;2023-04-19T04:01:30;24.80;;;16.05;;
19554;SDS011;9924;50.828;6.440;2023-04-19T04:04:44;26.48;;;14.98;;
19554;SDS011;9924;50.828;6.440;2023-04-19T04:08:18;23.02;;;14.85;;
19554;SDS011;9924;50.828;6.440;2023-04-19T04:11:24;25.17;;;14.95;;
19554;SDS011;9924;50.828;6.440;2023-04-19T04:14:26;24.50;;;15.63;;
19554;SDS011;9924;50.828;6.440;2023-04-19T04:17:20;27.08;;;15.77;;
19554;SDS011;9924;50.828;6.440;2023-04-19T04:20:38;22.38;;;14.35;;
19554;SDS011;9924;50.828;6.440;2023-04-19T04:23:56;24.25;;;14.68;;
19554;SDS011;9924;50.828;6.440;2023-04-19T04:26:46;19.90;;;13.20;;
19554;SDS011;9924;50.828;6.440;2023-04-19T04:29:38;24.33;;;14.68;;
19554;SDS011;9924;50.828;6.440;2023-04-19T04:32:29;24.42;;;14.43;;
19554;SDS011;9924;50.828;6.440;2023-04-19T04:35:21;22.30;;;14.02;;
19554;SDS011;9924;50.828;6.440;2023-04-19T04:38:10;21.17;;;13.13;;
19554;SDS011;9924;50.828;6.440;2023-04-19T04:40:58;23.02;;;13.27;;
19554;SDS011;9924;50.828;6.440;2023-04-19T04:43:52;22.42;;;14.07;;
19554;SDS011;9924;50.828;6.440;2023-04-19T04:46:41;20.77;;;14.10;;
19554;SDS011;9924;50.828;6.440;2023-04-19T04:49:29;19.90;;;13.40;;
19554;SDS011;9924;50.828;6.440;2023-04-19T04:52:18;17.77;;;12.77;;
19554;SDS011;9924;50.828;6.440;2023-04-19T04:55:09;19.20;;;13.10;;
19554;SDS011;9924;50.828;6.440;2023-04-19T04:57:57;19.98;;;12.80;;
19554;SDS011;9924;50.828;6.440;2023-04-19T05:00:44;19.42;;;13.18;;
19554;SDS011;9924;50.828;6.440;2023-04-19T05:03:41;20.98;;;12.90;;
19554;SDS011;9924;50.828;6.440;2023-04-19T05:06:30;21.77;;;13.70;;
19554;SDS011;9924;50.828;6.440;2023-04-19T05:09:17;18.40;;;12.75;;
19554;SDS011;9924;50.828;6.440;2023-04-19T05:12:07;22.17;;;12.95;;
19554;SDS011;9924;50.828;6.440;2023-04-19T05:14:54;21.88;;;15.15;;
19554;SDS011;9924;50.828;6.440;2023-04-19T05:17:40;19.63;;;13.13;;
19554;SDS011;9924;50.828;6.440;2023-04-19T05:20:27;18.38;;;12.95;;
19554;SDS011;9924;50.828;6.440;2023-04-19T05:23:18;21.17;;;13.63;;
19554;SDS011;9924;50.828;6.440;2023-04-19T05:26:08;19.15;;;13.02;;
19554;SDS011;9924;50.828;6.440;2023-04-19T05:29:15;17.85;;;12.27;;
19554;SDS011;9924;50.828;6.440;2023-04-19T05:32:03;21.77;;;12.82;;
19554;SDS011;9924;50.828;6.440;2023-04-19T05:34:49;20.60;;;12.82;;
19554;SDS011;9924;50.828;6.440;2023-04-19T05:37:37;19.15;;;12.00;;
19554;SDS011;9924;50.828;6.440;2023-04-19T05:40:27;17.73;;;11.80;;
19554;SDS011;9924;50.828;6.440;2023-04-19T05:43:17;19.38;;;11.52;;
19554;SDS011;9924;50.828;6.440;2023-04-19T05:46:09;16.08;;;11.77;;
19554;SDS011;9924;50.828;6.440;2023-04-19T05:48:58;17.73;;;11.40;;
19554;SDS011;9924;50.828;6.440;2023-04-19T05:51:47;19.92;;;11.73;;
19554;SDS011;9924;50.828;6.440;2023-04-19T05:54:36;18.05;;;11.32;;
19554;SDS011;9924;50.828;6.440;2023-04-19T05:57:22;17.80;;;12.18;;
19554;SDS011;9924;50.828;6.440;2023-04-19T06:00:11;20.00;;;11.82;;
19554;SDS011;9924;50.828;6.440;2023-04-19T06:02:58;20.27;;;12.07;;
19554;SDS011;9924;50.828;6.440;2023-04-19T06:05:47;24.52;;;12.63;;
19554;SDS011;9924;50.828;6.440;2023-04-19T06:08:33;21.88;;;12.50;;
19554;SDS011;9924;50.828;6.440;2023-04-19T06:11:19;22.05;;;13.10;;
19554;SDS011;9924;50.828;6.440;2023-04-19T06:14:08;21.58;;;13.70;;
19554;SDS011;9924;50.828;6.440;2023-04-19T06:16:54;25.05;;;14.07;;
19554;SDS011;9924;50.828;6.440;2023-04-19T06:19:40;17.75;;;11.60;;
19554;SDS011;9924;50.828;6.440;2023-04-19T06:22:29;21.70;;;12.85;;
19554;SDS011;9924;50.828;6.440;2023-04-19T06:25:16;19.10;;;12.25;;
19554;SDS011;9924;50.828;6.440;2023-04-19T06:28:01;22.30;;;11.27;;
19554;SDS011;9924;50.828;6.440;2023-04-19T06:30:46;21.67;;;12.43;;
19554;SDS011;9924;50.828;6.440;2023-04-19T06:33:36;19.25;;;12.63;;
19554;SDS011;9924;50.828;6.440;2023-04-19T06:36:22;20.15;;;11.63;;
19554;SDS011;9924;50.828;6.440;2023-04-19T06:39:13;20.23;;;12.80;;
19554;SDS011;9924;50.828;6.440;2023-04-19T06:42:00;25.17;;;13.57;;
19554;SDS011;9924;50.828;6.440;2023-04-19T06:44:46;21.15;;;13.38;;
19554;SDS011;9924;50.828;6.440;2023-04-19T06:47:32;20.88;;;12.45;;
19554;SDS011;9924;50.828;6.440;2023-04-19T06:50:18;21.70;;;12.65;;
19554;SDS011;9924;50.828;6.440;2023-04-19T06:53:07;20.95;;;13.45;;
19554;SDS011;9924;50.828;6.440;2023-04-19T06:56:01;20.42;;;13.73;;
19554;SDS011;9924;50.828;6.440;2023-04-19T06:58:51;20.63;;;12.55;;
19554;SDS011;9924;50.828;6.440;2023-04-19T07:01:45;23.60;;;12.48;;
19554;SDS011;9924;50.828;6.440;2023-04-19T07:04:35;19.90;;;11.10;;
19554;SDS011;9924;50.828;6.440;2023-04-19T07:07:32;15.23;;;10.23;;
19554;SDS011;9924;50.828;6.440;2023-04-19T07:10:25;14.85;;;10.25;;
19554;SDS011;9924;50.828;6.440;2023-04-19T07:13:23;16.55;;;9.85;;
19554;SDS011;9924;50.828;6.440;2023-04-19T07:16:16;15.85;;;10.40;;
19554;SDS011;9924;50.828;6.440;2023-04-19T07:19:07;12.40;;;8.77;;
19554;SDS011;9924;50.828;6.440;2023-04-19T07:22:03;16.58;;;9.52;;
19554;SDS011;9924;50.828;6.440;2023-04-19T07:24:52;16.42;;;9.40;;
19554;SDS011;9924;50.828;6.440;2023-04-19T07:27:44;18.85;;;8.88;;
19554;SDS011;9924;50.828;6.440;2023-04-19T07:30:34;12.85;;;8.23;;
19554;SDS011;9924;50.828;6.440;2023-04-19T07:33:23;18.40;;;8.65;;
19554;SDS011;9924;50.828;6.440;2023-04-19T07:36:14;12.25;;;7.70;;
19554;SDS011;9924;50.828;6.440;2023-04-19T07:39:01;12.77;;;6.88;;
19554;SDS011;9924;50.828;6.440;2023-04-19T07:41:56;13.40;;;7.60;;
19554;SDS011;9924;50.828;6.440;2023-04-19T07:44:41;11.77;;;7.30;;
19554;SDS011;9924;50.828;6.440;2023-04-19T07:47:26;13.70;;;6.60;;
19554;SDS011;9924;50.828;6.440;2023-04-19T07:50:20;9.40;;;6.22;;
19554;SDS011;9924;50.828;6.440;2023-04-19T07:53:08;9.68;;;6.45;;
19554;SDS011;9924;50.828;6.440;2023-04-19T07:55:56;10.02;;;5.78;;
19554;SDS011;9924;50.828;6.440;2023-04-19T07:58:41;9.25;;;6.25;;
19554;SDS011;9924;50.828;6.440;2023-04-19T08:01:28;8.82;;;6.22;;
19554;SDS011;9924;50.828;6.440;2023-04-19T08:04:14;9.40;;;6.10;;
19554;SDS011;9924;50.828;6.440;2023-04-19T08:07:05;9.00;;;5.97;;
19554;SDS011;9924;50.828;6.440;2023-04-19T08:09:56;9.25;;;5.95;;
19554;SDS011;9924;50.828;6.440;2023-04-19T08:12:42;10.35;;;6.07;;
19554;SDS011;9924;50.828;6.440;2023-04-19T08:15:28;11.55;;;6.35;;
19554;SDS011;9924;50.828;6.440;2023-04-19T08:18:15;13.55;;;6.18;;
19554;SDS011;9924;50.828;6.440;2023-04-19T08:21:01;11.00;;;6.35;;
19554;SDS011;9924;50.828;6.440;2023-04-19T08:23:48;8.10;;;5.68;;
19554;SDS011;9924;50.828;6.440;2023-04-19T08:26:34;9.80;;;5.93;;
19554;SDS011;9924;50.828;6.440;2023-04-19T08:29:21;12.65;;;6.35;;
19554;SDS011;9924;50.828;6.440;2023-04-19T08:32:07;13.43;;;6.18;;
19554;SDS011;9924;50.828;6.440;2023-04-19T08:34:52;13.88;;;7.00;;
19554;SDS011;9924;50.828;6.440;2023-04-19T08:37:39;10.85;;;6.38;;
19554;SDS011;9924;50.828;6.440;2023-04-19T08:40:25;10.43;;;5.97;;
19554;SDS011;9924;50.828;6.440;2023-04-19T08:43:14;14.15;;;6.38;;
19554;SDS011;9924;50.828;6.440;2023-04-19T08:46:01;11.50;;;6.53;;
19554;SDS011;9924;50.828;6.440;2023-04-19T08:48:47;13.52;;;6.18;;
19554;SDS011;9924;50.828;6.440;2023-04-19T08:51:33;31.90;;;18.83;;
19554;SDS011;9924;50.828;6.440;2023-04-19T08:54:20;10.30;;;6.28;;
19554;SDS011;9924;50.828;6.440;2023-04-19T08:57:07;11.32;;;6.70;;
19554;SDS011;9924;50.828;6.440;2023-04-19T08:59:53;11.88;;;7.05;;
19554;SDS011;9924;50.828;6.440;2023-04-19T09:02:44;15.88;;;7.00;;
19554;SDS011;9924;50.828;6.440;2023-04-19T09:05:30;12.43;;;6.90;;
19554;SDS011;9924;50.828;6.440;2023-04-19T09:08:29;10.52;;;6.82;;
19554;SDS011;9924;50.828;6.440;2023-04-19T09:11:14;13.15;;;7.03;;
19554;SDS011;9924;50.828;6.440;2023-04-19T09:14:06;12.63;;;6.63;;
19554;SDS011;9924;50.828;6.440;2023-04-19T09:16:52;14.32;;;6.88;;
19554;SDS011;9924;50.828;6.440;2023-04-19T09:19:53;10.80;;;6.97;;
19554;SDS011;9924;50.828;6.440;2023-04-19T09:22:39;10.95;;;6.55;;
19554;SDS011;9924;50.828;6.440;2023-04-19T09:25:27;11.15;;;6.50;;
19554;SDS011;9924;50.828;6.440;2023-04-19T09:28:13;13.45;;;6.32;;
19554;SDS011;9924;50.828;6.440;2023-04-19T09:30:58;9.07;;;5.97;;
19554;SDS011;9924;50.828;6.440;2023-04-19T09:34:10;9.15;;;5.78;;
19554;SDS011;9924;50.828;6.440;2023-04-19T09:37:12;12.45;;;6.30;;
19554;SDS011;9924;50.828;6.440;2023-04-19T09:39:57;12.30;;;6.10;;
19554;SDS011;9924;50.828;6.440;2023-04-19T09:42:44;8.93;;;6.00;;
19554;SDS011;9924;50.828;6.440;2023-04-19T09:45:40;13.63;;;6.32;;
19554;SDS011;9924;50.828;6.440;2023-04-19T09:48:28;8.20;;;5.93;;
19554;SDS011;9924;50.828;6.440;2023-04-19T09:51:13;11.07;;;6.18;;
19554;SDS011;9924;50.828;6.440;2023-04-19T09:53:58;8.10;;;6.15;;
19554;SDS011;9924;50.828;6.440;2023-04-19T09:56:44;8.50;;;5.50;;
19554;SDS011;9924;50.828;6.440;2023-04-19T09:59:30;10.93;;;6.25;;
19554;SDS011;9924;50.828;6.440;2023-04-19T10:02:27;8.77;;;5.65;;
19554;SDS011;9924;50.828;6.440;2023-04-19T10:05:21;9.07;;;5.20;;
19554;SDS011;9924;50.828;6.440;2023-04-19T10:08:07;7.47;;;5.60;;
19554;SDS011;9924;50.828;6.440;2023-04-19T10:10:57;11.48;;;5.47;;
19554;SDS011;9924;50.828;6.440;2023-04-19T10:13:42;7.97;;;4.85;;
19554;SDS011;9924;50.828;6.440;2023-04-19T10:16:30;11.52;;;4.72;;
19554;SDS011;9924;50.828;6.440;2023-04-19T10:19:20;13.27;;;5.40;;
19554;SDS011;9924;50.828;6.440;2023-04-19T10:22:09;9.70;;;5.30;;
19554;SDS011;9924;50.828;6.440;2023-04-19T10:25:15;7.85;;;4.65;;
19554;SDS011;9924;50.828;6.440;2023-04-19T10:28:10;10.88;;;4.88;;
19554;SDS011;9924;50.828;6.440;2023-04-19T10:31:02;10.63;;;4.72;;
19554;SDS011;9924;50.828;6.440;2023-04-19T10:33:49;14.25;;;5.50;;
19554;SDS011;9924;50.828;6.440;2023-04-19T10:36:37;9.43;;;4.30;;
19554;SDS011;9924;50.828;6.440;2023-04-19T10:39:40;7.32;;;4.30;;
19554;SDS011;9924;50.828;6.440;2023-04-19T10:45:57;9.25;;;4.22;;
19554;SDS011;9924;50.828;6.440;2023-04-19T10:48:51;8.60;;;4.25;;
19554;SDS011;9924;50.828;6.440;2023-04-19T10:51:49;13.93;;;3.97;;
19554;SDS011;9924;50.828;6.440;2023-04-19T10:54:39;6.72;;;4.53;;
19554;SDS011;9924;50.828;6.440;2023-04-19T10:57:59;9.27;;;3.67;;
19554;SDS011;9924;50.828;6.440;2023-04-19T11:00:48;7.32;;;4.28;;
19554;SDS011;9924;50.828;6.440;2023-04-19T11:04:16;9.52;;;3.88;;
19554;SDS011;9924;50.828;6.440;2023-04-19T11:09:44;5.85;;;3.40;;
19554;SDS011;9924;50.828;6.440;2023-04-19T11:12:41;7.93;;;3.45;;
19554;SDS011;9924;50.828;6.440;2023-04-19T11:15:27;7.53;;;3.60;;
19554;SDS011;9924;50.828;6.440;2023-04-19T11:18:20;8.13;;;3.55;;
19554;SDS011;9924;50.828;6.440;2023-04-19T11:21:05;10.38;;;3.80;;
19554;SDS011;9924;50.828;6.440;2023-04-19T11:24:10;8.55;;;4.57;;
19554;SDS011;9924;50.828;6.440;2023-04-19T11:26:55;8.43;;;3.58;;
19554;SDS011;9924;50.828;6.440;2023-04-19T11:29:42;8.63;;;4.13;;
19554;SDS011;9924;50.828;6.440;2023-04-19T11:32:27;4.97;;;3.58;;
19554;SDS011;9924;50.828;6.440;2023-04-19T11:35:12;8.45;;;3.50;;
19554;SDS011;9924;50.828;6.440;2023-04-19T11:37:58;6.25;;;3.38;;
19554;SDS011;9924;50.828;6.440;2023-04-19T11:41:11;7.68;;;3.63;;
19554;SDS011;9924;50.828;6.440;2023-04-19T11:43:57;7.70;;;3.42;;
19554;SDS011;9924;50.828;6.440;2023-04-19T11:50:09;8.32;;;3.70;;
19554;SDS011;9924;50.828;6.440;2023-04-19T11:53:20;5.95;;;3.38;;
19554;SDS011;9924;50.828;6.440;2023-04-19T11:56:08;8.10;;;3.55;;
19554;SDS011;9924;50.828;6.440;2023-04-19T11:59:01;8.38;;;3.50;;
19554;SDS011;9924;50.828;6.440;2023-04-19T12:01:47;8.73;;;3.67;;
19554;SDS011;9924;50.828;6.440;2023-04-19T12:04:31;10.55;;;3.10;;
19554;SDS011;9924;50.828;6.440;2023-04-19T12:07:16;5.63;;;2.75;;
19554;SDS011;9924;50.828;6.440;2023-04-19T12:10:10;12.10;;;2.80;;
19554;SDS011;9924;50.828;6.440;2023-04-19T12:12:55;9.23;;;3.17;;
19554;SDS011;9924;50.828;6.440;2023-04-19T12:15:44;6.20;;;2.45;;
19554;SDS011;9924;50.828;6.440;2023-04-19T12:18:48;5.97;;;2.60;;
19554;SDS011;9924;50.828;6.440;2023-04-19T12:21:39;7.25;;;3.05;;
19554;SDS011;9924;50.828;6.440;2023-04-19T12:24:30;5.32;;;2.55;;
19554;SDS011;9924;50.828;6.440;2023-04-19T12:27:22;4.07;;;2.28;;
19554;SDS011;9924;50.828;6.440;2023-04-19T12:30:19;6.45;;;2.80;;
19554;SDS011;9924;50.828;6.440;2023-04-19T12:33:06;9.55;;;2.22;;
19554;SDS011;9924;50.828;6.440;2023-04-19T12:35:52;4.95;;;2.20;;
19554;SDS011;9924;50.828;6.440;2023-04-19T12:38:39;8.20;;;2.35;;
19554;SDS011;9924;50.828;6.440;2023-04-19T12:41:28;6.82;;;2.65;;
19554;SDS011;9924;50.828;6.440;2023-04-19T12:44:13;7.82;;;2.25;;
19554;SDS011;9924;50.828;6.440;2023-04-19T12:47:02;9.02;;;2.50;;
19554;SDS011;9924;50.828;6.440;2023-04-19T12:49:51;4.55;;;2.40;;
19554;SDS011;9924;50.828;6.440;2023-04-19T12:52:40;6.88;;;2.50;;
19554;SDS011;9924;50.828;6.440;2023-04-19T12:55:30;6.15;;;2.10;;
19554;SDS011;9924;50.828;6.440;2023-04-19T12:58:18;7.93;;;2.53;;
19554;SDS011;9924;50.828;6.440;2023-04-19T13:01:04;4.55;;;2.60;;
19554;SDS011;9924;50.828;6.440;2023-04-19T13:03:52;6.25;;;2.72;;
19554;SDS011;9924;50.828;6.440;2023-04-19T13:06:51;7.65;;;2.40;;
19554;SDS011;9924;50.828;6.440;2023-04-19T13:09:43;6.28;;;2.55;;
19554;SDS011;9924;50.828;6.440;2023-04-19T13:12:34;8.23;;;2.80;;
19554;SDS011;9924;50.828;6.440;2023-04-19T13:15:39;8.63;;;2.65;;
19554;SDS011;9924;50.828;6.440;2023-04-19T13:18:24;7.53;;;2.85;;
19554;SDS011;9924;50.828;6.440;2023-04-19T13:21:15;3.85;;;2.40;;
19554;SDS011;9924;50.828;6.440;2023-04-19T13:24:07;10.98;;;3.20;;
19554;SDS011;9924;50.828;6.440;2023-04-19T13:27:13;4.60;;;2.40;;
19554;SDS011;9924;50.828;6.440;2023-04-19T13:30:07;5.10;;;2.55;;
19554;SDS011;9924;50.828;6.440;2023-04-19T13:32:55;7.05;;;2.47;;
19554;SDS011;9924;50.828;6.440;2023-04-19T13:35:43;4.22;;;2.60;;
19554;SDS011;9924;50.828;6.440;2023-04-19T13:38:30;5.97;;;2.45;;
19554;SDS011;9924;50.828;6.440;2023-04-19T13:41:17;5.65;;;2.58;;
19554;SDS011;9924;50.828;6.440;2023-04-19T13:44:06;6.18;;;2.30;;
19554;SDS011;9924;50.828;6.440;2023-04-19T13:46:51;5.15;;;2.42;;
19554;SDS011;9924;50.828;6.440;2023-04-19T13:49:39;8.95;;;2.42;;
19554;SDS011;9924;50.828;6.440;2023-04-19T13:52:24;7.45;;;2.40;;
19554;SDS011;9924;50.828;6.440;2023-04-19T13:55:15;10.18;;;2.78;;
19554;SDS011;9924;50.828;6.440;2023-04-19T13:58:09;4.32;;;2.65;;
19554;SDS011;9924;50.828;6.440;2023-04-19T14:04:12;4.28;;;2.42;;
19554;SDS011;9924;50.828;6.440;2023-04-19T14:06:57;5.78;;;2.90;;
19554;SDS011;9924;50.828;6.440;2023-04-19T14:09:42;8.98;;;3.53;;
19554;SDS011;9924;50.828;6.440;2023-04-19T14:12:31;8.10;;;2.63;;
19554;SDS011;9924;50.828;6.440;2023-04-19T14:15:16;5.82;;;3.00;;
19554;SDS011;9924;50.828;6.440;2023-04-19T14:18:10;7.60;;;3.17;;
19554;SDS011;9924;50.828;6.440;2023-04-19T14:21:06;8.68;;;3.17;;
19554;SDS011;9924;50.828;6.440;2023-04-19T14:24:00;8.57;;;3.47;;
19554;SDS011;9924;50.828;6.440;2023-04-19T14:26:55;6.88;;;3.25;;
19554;SDS011;9924;50.828;6.440;2023-04-19T14:29:42;4.75;;;2.85;;
19554;SDS011;9924;50.828;6.440;2023-04-19T14:32:30;4.63;;;3.10;;
19554;SDS011;9924;50.828;6.440;2023-04-19T14:35:15;6.95;;;2.85;;
19554;SDS011;9924;50.828;6.440;2023-04-19T14:38:00;7.15;;;2.92;;
19554;SDS011;9924;50.828;6.440;2023-04-19T14:40:45;4.53;;;2.80;;
19554;SDS011;9924;50.828;6.440;2023-04-19T14:43:34;8.20;;;2.70;;
19554;SDS011;9924;50.828;6.440;2023-04-19T14:46:22;6.57;;;3.00;;
19554;SDS011;9924;50.828;6.440;2023-04-19T14:49:07;5.50;;;2.63;;
19554;SDS011;9924;50.828;6.440;2023-04-19T14:51:54;6.85;;;2.70;;
19554;SDS011;9924;50.828;6.440;2023-04-19T14:54:42;7.90;;;3.17;;
19554;SDS011;9924;50.828;6.440;2023-04-19T14:57:31;6.63;;;3.00;;
19554;SDS011;9924;50.828;6.440;2023-04-19T15:00:15;8.25;;;3.88;;
19554;SDS011;9924;50.828;6.440;2023-04-19T15:03:24;7.38;;;3.05;;
19554;SDS011;9924;50.828;6.440;2023-04-19T15:06:09;9.35;;;2.85;;
19554;SDS011;9924;50.828;6.440;2023-04-19T15:08:58;6.05;;;3.50;;
19554;SDS011;9924;50.828;6.440;2023-04-19T15:11:43;8.20;;;3.30;;
19554;SDS011;9924;50.828;6.440;2023-04-19T15:14:35;5.10;;;3.25;;
19554;SDS011;9924;50.828;6.440;2023-04-19T15:17:29;5.13;;;3.00;;
19554;SDS011;9924;50.828;6.440;2023-04-19T15:20:15;4.82;;;3.00;;
19554;SDS011;9924;50.828;6.440;2023-04-19T15:23:00;7.32;;;3.00;;
19554;SDS011;9924;50.828;6.440;2023-04-19T15:25:45;5.93;;;3.42;;
19554;SDS011;9924;50.828;6.440;2023-04-19T15:28:32;6.25;;;3.20;;
19554;SDS011;9924;50.828;6.440;2023-04-19T15:31:18;8.68;;;3.00;;
19554;SDS011;9924;50.828;6.440;2023-04-19T15:34:03;6.50;;;3.00;;
19554;SDS011;9924;50.828;6.440;2023-04-19T15:37:08;6.97;;;3.08;;
19554;SDS011;9924;50.828;6.440;2023-04-19T15:39:53;10.07;;;3.88;;
19554;SDS011;9924;50.828;6.440;2023-04-19T15:42:41;8.75;;;3.53;;
19554;SDS011;9924;50.828;6.440;2023-04-19T15:45:26;6.45;;;3.30;;
19554;SDS011;9924;50.828;6.440;2023-04-19T15:48:27;8.40;;;3.60;;
19554;SDS011;9924;50.828;6.440;2023-04-19T15:51:12;7.07;;;3.90;;
19554;SDS011;9924;50.828;6.440;2023-04-19T15:54:03;7.85;;;3.25;;
19554;SDS011;9924;50.828;6.440;2023-04-19T15:56:55;9.65;;;3.53;;
19554;SDS011;9924;50.828;6.440;2023-04-19T15:59:45;6.35;;;2.72;;
19554;SDS011;9924;50.828;6.440;2023-04-19T16:02:29;6.53;;;2.83;;
19554;SDS011;9924;50.828;6.440;2023-04-19T16:05:15;6.00;;;2.80;;
19554;SDS011;9924;50.828;6.440;2023-04-19T16:08:05;8.25;;;2.42;;
19554;SDS011;9924;50.828;6.440;2023-04-19T16:10:52;4.45;;;2.90;;
19554;SDS011;9924;50.828;6.440;2023-04-19T16:13:37;7.65;;;3.28;;
19554;SDS011;9924;50.828;6.440;2023-04-19T16:16:21;7.63;;;2.90;;
19554;SDS011;9924;50.828;6.440;2023-04-19T16:19:05;4.63;;;2.80;;
19554;SDS011;9924;50.828;6.440;2023-04-19T16:21:50;7.72;;;3.10;;
19554;SDS011;9924;50.828;6.440;2023-04-19T16:24:34;7.88;;;2.60;;
19554;SDS011;9924;50.828;6.440;2023-04-19T16:27:19;9.70;;;2.83;;
19554;SDS011;9924;50.828;6.440;2023-04-19T16:30:04;9.20;;;2.45;;
19554;SDS011;9924;50.828;6.440;2023-04-19T16:32:49;6.68;;;3.38;;
19554;SDS011;9924;50.828;6.440;2023-04-19T16:35:33;5.97;;;2.63;;
19554;SDS011;9924;50.828;6.440;2023-04-19T16:38:18;5.93;;;2.95;;
19554;SDS011;9924;50.828;6.440;2023-04-19T16:41:02;8.18;;;2.70;;
19554;SDS011;9924;50.828;6.440;2023-04-19T16:43:48;6.88;;;2.85;;
19554;SDS011;9924;50.828;6.440;2023-04-19T16:46:33;5.18;;;2.40;;
19554;SDS011;9924;50.828;6.440;2023-04-19T16:49:18;5.32;;;2.70;;
19554;SDS011;9924;50.828;6.440;2023-04-19T16:52:03;6.65;;;3.00;;
19554;SDS011;9924;50.828;6.440;2023-04-19T16:54:47;4.88;;;2.55;;
19554;SDS011;9924;50.828;6.440;2023-04-19T16:57:32;9.93;;;5.85;;
19554;SDS011;9924;50.828;6.440;2023-04-19T17:00:16;3.65;;;2.30;;
19554;SDS011;9924;50.828;6.440;2023-04-19T17:03:01;3.47;;;2.30;;
19554;SDS011;9924;50.828;6.440;2023-04-19T17:05:45;5.35;;;2.50;;
19554;SDS011;9924;50.828;6.440;2023-04-19T17:08:29;9.50;;;2.03;;
19554;SDS011;9924;50.828;6.440;2023-04-19T17:11:14;4.93;;;1.88;;
19554;SDS011;9924;50.828;6.440;2023-04-19T17:13:58;4.00;;;2.00;;
19554;SDS011;9924;50.828;6.440;2023-04-19T17:16:44;5.30;;;2.25;;
19554;SDS011;9924;50.828;6.440;2023-04-19T17:19:29;5.15;;;2.13;;
19554;SDS011;9924;50.828;6.440;2023-04-19T17:22:13;4.35;;;2.30;;
19554;SDS011;9924;50.828;6.440;2023-04-19T17:24:58;11.80;;;2.60;;
19554;SDS011;9924;50.828;6.440;2023-04-19T17:27:43;4.05;;;2.20;;
19554;SDS011;9924;50.828;6.440;2023-04-19T17:30:28;7.63;;;2.38;;
19554;SDS011;9924;50.828;6.440;2023-04-19T17:33:12;4.07;;;2.20;;